sensor_id;sensor_type;location;lat;lon;timestamp;pressure;altitude;pressure_sealevel;temperature
67829;BMP280;54626;45.436;10.942;2023-03-01T00:01:30;101092.72;;;4.29
67829;BMP280;54626;45.436;10.942;2023-03-01T00:03:57;101072.59;;;4.17
67829;BMP280;54626;45.436;10.942;2023-03-01T00:06:25;101078.34;;;4.19
67829;BMP280;54626;45.436;10.942;2023-03-01T00:08:52;101075.91;;;4.21
67829;BMP280;54626;45.436;10.942;2023-03-01T00:11:19;101081.31;;;4.16
67829;BMP280;54626;45.436;10.942;2023-03-01T00:13:47;101076.31;;;4.00
67829;BMP280;54626;45.436;10.942;2023-03-01T00:16:16;101078.22;;;3.79
67829;BMP280;54626;45.436;10.942;2023-03-01T00:18:43;101078.47;;;3.67
67829;BMP280;54626;45.436;10.942;2023-03-01T00:21:11;101072.53;;;3.68
67829;BMP280;54626;45.436;10.942;2023-03-01T00:23:38;101061.81;;;3.79
67829;BMP280;54626;45.436;10.942;2023-03-01T00:26:11;101059.63;;;3.83
67829;BMP280;54626;45.436;10.942;2023-03-01T00:28:38;101063.38;;;3.71
67829;BMP280;54626;45.436;10.942;2023-03-01T00:31:07;101053.50;;;3.59
67829;BMP280;54626;45.436;10.942;2023-03-01T00:33:34;101056.50;;;3.47
67829;BMP280;54626;45.436;10.942;2023-03-01T00:36:00;101054.50;;;3.47
67829;BMP280;54626;45.436;10.942;2023-03-01T00:38:38;101048.59;;;3.49
67829;BMP280;54626;45.436;10.942;2023-03-01T00:41:10;101042.94;;;3.52
67829;BMP280;54626;45.436;10.942;2023-03-01T00:43:37;101046.31;;;3.47
67829;BMP280;54626;45.436;10.942;2023-03-01T00:46:05;101042.00;;;3.41
67829;BMP280;54626;45.436;10.942;2023-03-01T00:48:33;101032.53;;;3.28
67829;BMP280;54626;45.436;10.942;2023-03-01T00:51:12;101037.25;;;3.27
67829;BMP280;54626;45.436;10.942;2023-03-01T00:53:38;101029.63;;;3.17
67829;BMP280;54626;45.436;10.942;2023-03-01T00:56:07;101023.34;;;3.02
67829;BMP280;54626;45.436;10.942;2023-03-01T00:58:34;101037.16;;;2.84
67829;BMP280;54626;45.436;10.942;2023-03-01T01:01:10;101029.06;;;2.66
67829;BMP280;54626;45.436;10.942;2023-03-01T01:03:50;101030.06;;;2.54
67829;BMP280;54626;45.436;10.942;2023-03-01T01:06:22;101029.31;;;2.44
67829;BMP280;54626;45.436;10.942;2023-03-01T01:08:49;101027.41;;;2.36
67829;BMP280;54626;45.436;10.942;2023-03-01T01:11:16;101022.41;;;2.34
67829;BMP280;54626;45.436;10.942;2023-03-01T01:13:44;101017.78;;;2.49
67829;BMP280;54626;45.436;10.942;2023-03-01T01:16:11;101015.81;;;2.50
67829;BMP280;54626;45.436;10.942;2023-03-01T01:18:37;101012.22;;;2.67
67829;BMP280;54626;45.436;10.942;2023-03-01T01:21:09;101009.50;;;2.67
67829;BMP280;54626;45.436;10.942;2023-03-01T01:23:36;100989.72;;;2.58
67829;BMP280;54626;45.436;10.942;2023-03-01T01:26:13;100997.16;;;2.57
67829;BMP280;54626;45.436;10.942;2023-03-01T01:28:49;100992.69;;;2.60
67829;BMP280;54626;45.436;10.942;2023-03-01T01:31:16;100973.19;;;2.52
67829;BMP280;54626;45.436;10.942;2023-03-01T01:33:43;100982.50;;;2.46
67829;BMP280;54626;45.436;10.942;2023-03-01T01:36:11;100974.22;;;2.32
67829;BMP280;54626;45.436;10.942;2023-03-01T01:38:38;100974.47;;;2.19
67829;BMP280;54626;45.436;10.942;2023-03-01T01:41:06;100956.63;;;2.09
67829;BMP280;54626;45.436;10.942;2023-03-01T01:43:39;100964.66;;;2.04
67829;BMP280;54626;45.436;10.942;2023-03-01T01:46:21;100959.09;;;1.98
67829;BMP280;54626;45.436;10.942;2023-03-01T01:48:57;100957.09;;;2.08
67829;BMP280;54626;45.436;10.942;2023-03-01T01:51:28;100955.69;;;2.21
67829;BMP280;54626;45.436;10.942;2023-03-01T01:53:58;100955.38;;;2.19
67829;BMP280;54626;45.436;10.942;2023-03-01T01:56:27;100949.78;;;2.14
67829;BMP280;54626;45.436;10.942;2023-03-01T01:58:55;100945.09;;;2.14
67829;BMP280;54626;45.436;10.942;2023-03-01T02:01:22;100942.63;;;2.25
67829;BMP280;54626;45.436;10.942;2023-03-01T02:03:50;100945.34;;;2.25
67829;BMP280;54626;45.436;10.942;2023-03-01T02:06:26;100939.31;;;2.21
67829;BMP280;54626;45.436;10.942;2023-03-01T02:09:02;100935.22;;;2.17
67829;BMP280;54626;45.436;10.942;2023-03-01T02:11:32;100944.41;;;2.28
67829;BMP280;54626;45.436;10.942;2023-03-01T02:14:04;100939.06;;;2.33
67829;BMP280;54626;45.436;10.942;2023-03-01T02:16:31;100920.38;;;2.18
67829;BMP280;54626;45.436;10.942;2023-03-01T02:18:59;100927.53;;;2.15
67829;BMP280;54626;45.436;10.942;2023-03-01T02:26:58;100913.31;;;1.79
67829;BMP280;54626;45.436;10.942;2023-03-01T02:29:28;100910.44;;;1.82
67829;BMP280;54626;45.436;10.942;2023-03-01T02:31:56;100915.81;;;1.91
67829;BMP280;54626;45.436;10.942;2023-03-01T02:34:24;100899.38;;;1.77
67829;BMP280;54626;45.436;10.942;2023-03-01T02:37:19;100907.19;;;1.84
67829;BMP280;54626;45.436;10.942;2023-03-01T02:39:56;100900.78;;;1.72
67829;BMP280;54626;45.436;10.942;2023-03-01T02:42:34;100899.75;;;1.61
67829;BMP280;54626;45.436;10.942;2023-03-01T02:45:05;100894.78;;;1.59
67829;BMP280;54626;45.436;10.942;2023-03-01T02:47:32;100899.41;;;1.68
67829;BMP280;54626;45.436;10.942;2023-03-01T02:49:59;100887.81;;;1.58
67829;BMP280;54626;45.436;10.942;2023-03-01T02:52:43;100882.53;;;1.46
67829;BMP280;54626;45.436;10.942;2023-03-01T02:55:14;100871.00;;;1.60
67829;BMP280;54626;45.436;10.942;2023-03-01T02:57:43;100864.13;;;1.73
67829;BMP280;54626;45.436;10.942;2023-03-01T03:00:16;100875.38;;;1.90
67829;BMP280;54626;45.436;10.942;2023-03-01T03:02:50;100866.13;;;1.96
67829;BMP280;54626;45.436;10.942;2023-03-01T03:05:19;100864.28;;;2.02
67829;BMP280;54626;45.436;10.942;2023-03-01T03:07:47;100863.69;;;1.98
67829;BMP280;54626;45.436;10.942;2023-03-01T03:10:20;100860.31;;;2.03
67829;BMP280;54626;45.436;10.942;2023-03-01T03:12:51;100851.81;;;2.10
67829;BMP280;54626;45.436;10.942;2023-03-01T03:15:19;100859.34;;;2.15
67829;BMP280;54626;45.436;10.942;2023-03-01T03:17:47;100863.34;;;2.05
67829;BMP280;54626;45.436;10.942;2023-03-01T03:20:20;100862.41;;;2.08
67829;BMP280;54626;45.436;10.942;2023-03-01T03:22:50;100864.03;;;2.15
67829;BMP280;54626;45.436;10.942;2023-03-01T03:25:24;100860.22;;;2.21
67829;BMP280;54626;45.436;10.942;2023-03-01T03:27:51;100861.63;;;2.31
67829;BMP280;54626;45.436;10.942;2023-03-01T03:30:31;100855.13;;;2.29
67829;BMP280;54626;45.436;10.942;2023-03-01T03:32:58;100868.41;;;2.35
67829;BMP280;54626;45.436;10.942;2023-03-01T03:35:33;100857.06;;;2.37
67829;BMP280;54626;45.436;10.942;2023-03-01T03:38:04;100856.69;;;2.44
67829;BMP280;54626;45.436;10.942;2023-03-01T03:40:37;100856.34;;;2.51
67829;BMP280;54626;45.436;10.942;2023-03-01T03:43:07;100850.53;;;2.58
67829;BMP280;54626;45.436;10.942;2023-03-01T03:45:35;100848.63;;;2.64
67829;BMP280;54626;45.436;10.942;2023-03-01T03:48:03;100853.09;;;2.76
67829;BMP280;54626;45.436;10.942;2023-03-01T03:50:32;100850.75;;;2.83
67829;BMP280;54626;45.436;10.942;2023-03-01T03:53:04;100859.00;;;2.89
67829;BMP280;54626;45.436;10.942;2023-03-01T03:55:32;100855.16;;;2.95
67829;BMP280;54626;45.436;10.942;2023-03-01T03:58:01;100847.72;;;2.96
67829;BMP280;54626;45.436;10.942;2023-03-01T04:00:43;100846.59;;;3.02
67829;BMP280;54626;45.436;10.942;2023-03-01T04:03:12;100855.66;;;3.08
67829;BMP280;54626;45.436;10.942;2023-03-01T04:05:41;100857.31;;;3.06
67829;BMP280;54626;45.436;10.942;2023-03-01T04:08:08;100849.69;;;3.10
67829;BMP280;54626;45.436;10.942;2023-03-01T04:10:40;100842.28;;;3.10
67829;BMP280;54626;45.436;10.942;2023-03-01T04:13:10;100845.63;;;3.20
67829;BMP280;54626;45.436;10.942;2023-03-01T04:15:39;100849.13;;;3.20
67829;BMP280;54626;45.436;10.942;2023-03-01T04:18:07;100845.09;;;3.16
67829;BMP280;54626;45.436;10.942;2023-03-01T04:20:35;100843.38;;;3.18
67829;BMP280;54626;45.436;10.942;2023-03-01T04:23:07;100838.41;;;3.17
67829;BMP280;54626;45.436;10.942;2023-03-01T04:25:41;100834.97;;;3.22
67829;BMP280;54626;45.436;10.942;2023-03-01T04:28:10;100827.72;;;3.19
67829;BMP280;54626;45.436;10.942;2023-03-01T04:30:39;100833.47;;;3.21
67829;BMP280;54626;45.436;10.942;2023-03-01T04:33:09;100836.97;;;3.21
67829;BMP280;54626;45.436;10.942;2023-03-01T04:35:36;100833.75;;;3.23
67829;BMP280;54626;45.436;10.942;2023-03-01T04:38:04;100830.84;;;3.26
67829;BMP280;54626;45.436;10.942;2023-03-01T04:40:31;100836.88;;;3.30
67829;BMP280;54626;45.436;10.942;2023-03-01T04:42:58;100835.66;;;3.31
67829;BMP280;54626;45.436;10.942;2023-03-01T04:45:25;100828.19;;;3.32
67829;BMP280;54626;45.436;10.942;2023-03-01T04:47:51;100835.44;;;3.35
67829;BMP280;54626;45.436;10.942;2023-03-01T04:50:22;100835.94;;;3.33
67829;BMP280;54626;45.436;10.942;2023-03-01T04:52:52;100829.25;;;3.34
67829;BMP280;54626;45.436;10.942;2023-03-01T04:55:19;100832.81;;;3.40
67829;BMP280;54626;45.436;10.942;2023-03-01T04:57:45;100834.09;;;3.44
67829;BMP280;54626;45.436;10.942;2023-03-01T05:00:13;100829.66;;;3.47
67829;BMP280;54626;45.436;10.942;2023-03-01T05:02:54;100833.97;;;3.53
67829;BMP280;54626;45.436;10.942;2023-03-01T05:07:56;100840.09;;;3.63
67829;BMP280;54626;45.436;10.942;2023-03-01T05:10:24;100834.16;;;3.64
67829;BMP280;54626;45.436;10.942;2023-03-01T05:12:52;100833.44;;;3.69
67829;BMP280;54626;45.436;10.942;2023-03-01T05:15:24;100819.50;;;3.67
67829;BMP280;54626;45.436;10.942;2023-03-01T05:17:55;100824.22;;;3.67
67829;BMP280;54626;45.436;10.942;2023-03-01T05:20:23;100812.75;;;3.63
67829;BMP280;54626;45.436;10.942;2023-03-01T05:22:51;100815.50;;;3.63
67829;BMP280;54626;45.436;10.942;2023-03-01T05:25:18;100817.03;;;3.69
67829;BMP280;54626;45.436;10.942;2023-03-01T05:27:44;100823.16;;;3.79
67829;BMP280;54626;45.436;10.942;2023-03-01T05:30:11;100820.44;;;3.79
67829;BMP280;54626;45.436;10.942;2023-03-01T05:32:44;100817.69;;;3.79
67829;BMP280;54626;45.436;10.942;2023-03-01T05:35:16;100826.72;;;3.85
67829;BMP280;54626;45.436;10.942;2023-03-01T05:37:44;100820.22;;;3.82
67829;BMP280;54626;45.436;10.942;2023-03-01T05:40:17;100823.22;;;3.84
67829;BMP280;54626;45.436;10.942;2023-03-01T05:42:46;100822.22;;;3.82
67829;BMP280;54626;45.436;10.942;2023-03-01T05:45:13;100834.38;;;3.81
67829;BMP280;54626;45.436;10.942;2023-03-01T05:47:42;100828.63;;;3.79
67829;BMP280;54626;45.436;10.942;2023-03-01T05:50:20;100835.13;;;3.81
67829;BMP280;54626;45.436;10.942;2023-03-01T05:52:50;100826.91;;;3.81
67829;BMP280;54626;45.436;10.942;2023-03-01T05:55:18;100819.66;;;3.78
67829;BMP280;54626;45.436;10.942;2023-03-01T05:57:46;100807.03;;;3.81
67829;BMP280;54626;45.436;10.942;2023-03-01T06:00:14;100816.66;;;3.76
67829;BMP280;54626;45.436;10.942;2023-03-01T06:02:41;100811.66;;;3.75
67829;BMP280;54626;45.436;10.942;2023-03-01T06:05:09;100826.06;;;3.75
67829;BMP280;54626;45.436;10.942;2023-03-01T06:07:36;100828.25;;;3.71
67829;BMP280;54626;45.436;10.942;2023-03-01T06:10:04;100822.31;;;3.73
67829;BMP280;54626;45.436;10.942;2023-03-01T06:12:32;100825.13;;;3.78
67829;BMP280;54626;45.436;10.942;2023-03-01T06:14:59;100834.09;;;3.79
67829;BMP280;54626;45.436;10.942;2023-03-01T06:17:33;100835.38;;;3.83
67829;BMP280;54626;45.436;10.942;2023-03-01T06:20:05;100835.38;;;3.83
67829;BMP280;54626;45.436;10.942;2023-03-01T06:22:32;100837.94;;;3.87
67829;BMP280;54626;45.436;10.942;2023-03-01T06:24:59;100834.69;;;3.88
67829;BMP280;54626;45.436;10.942;2023-03-01T06:27:26;100836.75;;;3.93
67829;BMP280;54626;45.436;10.942;2023-03-01T06:29:53;100822.78;;;3.91
67829;BMP280;54626;45.436;10.942;2023-03-01T06:32:20;100820.16;;;3.97
67829;BMP280;54626;45.436;10.942;2023-03-01T06:34:46;100823.44;;;4.01
67829;BMP280;54626;45.436;10.942;2023-03-01T06:37:13;100816.34;;;4.14
67829;BMP280;54626;45.436;10.942;2023-03-01T06:39:39;100816.63;;;4.16
67829;BMP280;54626;45.436;10.942;2023-03-01T06:42:08;100813.03;;;4.25
67829;BMP280;54626;45.436;10.942;2023-03-01T06:44:34;100811.91;;;4.37
67829;BMP280;54626;45.436;10.942;2023-03-01T06:47:01;100812.81;;;4.53
67829;BMP280;54626;45.436;10.942;2023-03-01T06:49:27;100815.69;;;4.70
67829;BMP280;54626;45.436;10.942;2023-03-01T06:51:53;100806.34;;;4.82
67829;BMP280;54626;45.436;10.942;2023-03-01T06:54:20;100813.41;;;4.94
67829;BMP280;54626;45.436;10.942;2023-03-01T06:56:49;100816.16;;;4.94
67829;BMP280;54626;45.436;10.942;2023-03-01T06:59:16;100815.53;;;5.10
67829;BMP280;54626;45.436;10.942;2023-03-01T07:01:43;100817.31;;;5.13
67829;BMP280;54626;45.436;10.942;2023-03-01T07:04:11;100820.13;;;5.24
67829;BMP280;54626;45.436;10.942;2023-03-01T07:06:39;100823.41;;;5.28
67829;BMP280;54626;45.436;10.942;2023-03-01T07:09:06;100822.47;;;5.42
67829;BMP280;54626;45.436;10.942;2023-03-01T07:11:33;100812.81;;;5.51
67829;BMP280;54626;45.436;10.942;2023-03-01T07:14:00;100817.84;;;5.58
67829;BMP280;54626;45.436;10.942;2023-03-01T07:16:26;100811.63;;;5.69
67829;BMP280;54626;45.436;10.942;2023-03-01T07:18:53;100804.97;;;5.75
67829;BMP280;54626;45.436;10.942;2023-03-01T07:21:20;100808.97;;;5.85
67829;BMP280;54626;45.436;10.942;2023-03-01T07:23:48;100817.78;;;6.00
67829;BMP280;54626;45.436;10.942;2023-03-01T07:26:15;100814.03;;;6.03
67829;BMP280;54626;45.436;10.942;2023-03-01T07:28:50;100814.59;;;6.18
67829;BMP280;54626;45.436;10.942;2023-03-01T07:31:17;100797.88;;;6.27
67829;BMP280;54626;45.436;10.942;2023-03-01T07:33:43;100805.09;;;6.36
67829;BMP280;54626;45.436;10.942;2023-03-01T07:36:11;100813.13;;;6.39
67829;BMP280;54626;45.436;10.942;2023-03-01T07:38:42;100811.63;;;6.38
67829;BMP280;54626;45.436;10.942;2023-03-01T07:41:09;100803.66;;;6.51
67829;BMP280;54626;45.436;10.942;2023-03-01T07:43:36;100802.16;;;6.61
67829;BMP280;54626;45.436;10.942;2023-03-01T07:46:03;100799.13;;;6.48
67829;BMP280;54626;45.436;10.942;2023-03-01T07:48:31;100811.63;;;6.71
67829;BMP280;54626;45.436;10.942;2023-03-01T07:51:01;100805.41;;;6.81
67829;BMP280;54626;45.436;10.942;2023-03-01T07:53:28;100782.16;;;6.82
67829;BMP280;54626;45.436;10.942;2023-03-01T07:56:07;100772.41;;;6.92
67829;BMP280;54626;45.436;10.942;2023-03-01T07:58:35;100762.91;;;6.88
67829;BMP280;54626;45.436;10.942;2023-03-01T08:01:04;100767.63;;;6.98
67829;BMP280;54626;45.436;10.942;2023-03-01T08:03:31;100760.34;;;7.23
67829;BMP280;54626;45.436;10.942;2023-03-01T08:06:02;100764.31;;;7.32
67829;BMP280;54626;45.436;10.942;2023-03-01T08:08:29;100766.50;;;7.50
67829;BMP280;54626;45.436;10.942;2023-03-01T08:11:00;100763.91;;;7.63
67829;BMP280;54626;45.436;10.942;2023-03-01T08:13:30;100761.66;;;7.73
67829;BMP280;54626;45.436;10.942;2023-03-01T08:16:03;100740.09;;;7.77
67829;BMP280;54626;45.436;10.942;2023-03-01T08:18:32;100738.25;;;7.90
67829;BMP280;54626;45.436;10.942;2023-03-01T08:21:02;100732.63;;;8.12
67829;BMP280;54626;45.436;10.942;2023-03-01T08:23:30;100726.28;;;8.23
67829;BMP280;54626;45.436;10.942;2023-03-01T08:26:08;100723.88;;;8.37
67829;BMP280;54626;45.436;10.942;2023-03-01T08:28:35;100723.13;;;8.37
67829;BMP280;54626;45.436;10.942;2023-03-01T08:31:02;100727.13;;;8.41
67829;BMP280;54626;45.436;10.942;2023-03-01T08:33:29;100727.25;;;8.54
67829;BMP280;54626;45.436;10.942;2023-03-01T08:36:04;100736.03;;;8.53
67829;BMP280;54626;45.436;10.942;2023-03-01T08:38:30;100733.28;;;8.53
67829;BMP280;54626;45.436;10.942;2023-03-01T08:41:00;100742.41;;;8.66
67829;BMP280;54626;45.436;10.942;2023-03-01T08:43:27;100742.41;;;8.66
67829;BMP280;54626;45.436;10.942;2023-03-01T08:45:53;100736.50;;;8.81
67829;BMP280;54626;45.436;10.942;2023-03-01T08:48:20;100727.75;;;8.82
67829;BMP280;54626;45.436;10.942;2023-03-01T08:50:47;100726.16;;;8.63
67829;BMP280;54626;45.436;10.942;2023-03-01T08:53:13;100734.34;;;8.74
67829;BMP280;54626;45.436;10.942;2023-03-01T08:55:40;100719.91;;;8.62
67829;BMP280;54626;45.436;10.942;2023-03-01T08:58:07;100713.66;;;8.62
67829;BMP280;54626;45.436;10.942;2023-03-01T09:00:33;100712.91;;;8.61
67829;BMP280;54626;45.436;10.942;2023-03-01T09:03:01;100700.03;;;8.69
67829;BMP280;54626;45.436;10.942;2023-03-01T09:05:27;100689.50;;;8.68
67829;BMP280;54626;45.436;10.942;2023-03-01T09:07:54;100696.97;;;8.97
67829;BMP280;54626;45.436;10.942;2023-03-01T09:10:23;100695.00;;;9.34
67829;BMP280;54626;45.436;10.942;2023-03-01T09:12:51;100688.81;;;9.65
67829;BMP280;54626;45.436;10.942;2023-03-01T09:15:17;100692.28;;;9.65
67829;BMP280;54626;45.436;10.942;2023-03-01T09:17:44;100695.38;;;9.62
67829;BMP280;54626;45.436;10.942;2023-03-01T09:20:11;100687.59;;;9.60
67829;BMP280;54626;45.436;10.942;2023-03-01T09:22:38;100676.31;;;9.58
67829;BMP280;54626;45.436;10.942;2023-03-01T09:25:07;100678.06;;;9.61
67829;BMP280;54626;45.436;10.942;2023-03-01T09:27:34;100668.88;;;9.53
67829;BMP280;54626;45.436;10.942;2023-03-01T09:30:01;100683.59;;;9.43
67829;BMP280;54626;45.436;10.942;2023-03-01T09:32:50;100695.28;;;9.49
67829;BMP280;54626;45.436;10.942;2023-03-01T09:35:16;100692.47;;;9.54
67829;BMP280;54626;45.436;10.942;2023-03-01T09:37:46;100689.78;;;9.49
67829;BMP280;54626;45.436;10.942;2023-03-01T09:40:19;100686.81;;;9.47
67829;BMP280;54626;45.436;10.942;2023-03-01T09:43:24;100682.03;;;9.29
67829;BMP280;54626;45.436;10.942;2023-03-01T09:45:49;100675.22;;;9.30
67829;BMP280;54626;45.436;10.942;2023-03-01T09:48:20;100673.44;;;9.51
67829;BMP280;54626;45.436;10.942;2023-03-01T09:50:49;100672.03;;;9.63
67829;BMP280;54626;45.436;10.942;2023-03-01T09:53:22;100650.66;;;9.63
67829;BMP280;54626;45.436;10.942;2023-03-01T09:58:28;100651.97;;;9.75
67829;BMP280;54626;45.436;10.942;2023-03-01T10:00:59;100652.75;;;9.57
67829;BMP280;54626;45.436;10.942;2023-03-01T10:03:39;100650.00;;;9.57
67829;BMP280;54626;45.436;10.942;2023-03-01T10:06:20;100640.41;;;9.45
67829;BMP280;54626;45.436;10.942;2023-03-01T10:09:05;100646.97;;;9.42
67829;BMP280;54626;45.436;10.942;2023-03-01T10:11:38;100655.53;;;9.39
67829;BMP280;54626;45.436;10.942;2023-03-01T10:16:52;100647.47;;;9.22
67829;BMP280;54626;45.436;10.942;2023-03-01T10:22:07;100647.72;;;9.24
67829;BMP280;54626;45.436;10.942;2023-03-01T10:24:37;100648.69;;;9.45
67829;BMP280;54626;45.436;10.942;2023-03-01T10:27:09;100649.41;;;9.64
67829;BMP280;54626;45.436;10.942;2023-03-01T10:30:02;100645.06;;;9.69
67829;BMP280;54626;45.436;10.942;2023-03-01T10:32:32;100637.66;;;9.77
67829;BMP280;54626;45.436;10.942;2023-03-01T10:34:58;100636.63;;;9.80
67829;BMP280;54626;45.436;10.942;2023-03-01T10:37:25;100641.34;;;9.97
67829;BMP280;54626;45.436;10.942;2023-03-01T10:40:10;100641.63;;;10.07
67829;BMP280;54626;45.436;10.942;2023-03-01T10:42:48;100636.56;;;10.11
67829;BMP280;54626;45.436;10.942;2023-03-01T10:45:35;100628.59;;;10.07
67829;BMP280;54626;45.436;10.942;2023-03-01T10:48:16;100622.78;;;10.37
67829;BMP280;54626;45.436;10.942;2023-03-01T10:50:48;100620.97;;;10.39
67829;BMP280;54626;45.436;10.942;2023-03-01T10:56:05;100616.84;;;10.46
67829;BMP280;54626;45.436;10.942;2023-03-01T10:58:34;100617.47;;;10.52
67829;BMP280;54626;45.436;10.942;2023-03-01T11:01:03;100618.94;;;10.66
67829;BMP280;54626;45.436;10.942;2023-03-01T11:03:36;100617.75;;;10.74
67829;BMP280;54626;45.436;10.942;2023-03-01T11:08:44;100613.84;;;10.69
67829;BMP280;54626;45.436;10.942;2023-03-01T11:11:30;100614.91;;;10.67
67829;BMP280;54626;45.436;10.942;2023-03-01T11:14:06;100622.63;;;10.81
67829;BMP280;54626;45.436;10.942;2023-03-01T11:17:02;100620.63;;;10.81
67829;BMP280;54626;45.436;10.942;2023-03-01T11:19:31;100628.88;;;11.07
67829;BMP280;54626;45.436;10.942;2023-03-01T11:22:02;100616.38;;;10.93
67829;BMP280;54626;45.436;10.942;2023-03-01T11:24:36;100622.56;;;10.73
67829;BMP280;54626;45.436;10.942;2023-03-01T11:27:19;100617.53;;;10.85
67829;BMP280;54626;45.436;10.942;2023-03-01T11:30:03;100631.03;;;11.01
67829;BMP280;54626;45.436;10.942;2023-03-01T11:32:46;100635.56;;;11.12
67829;BMP280;54626;45.436;10.942;2023-03-01T11:35:21;100649.09;;;11.15
67829;BMP280;54626;45.436;10.942;2023-03-01T11:40:39;100647.00;;;10.95
67829;BMP280;54626;45.436;10.942;2023-03-01T11:43:19;100640.44;;;10.85
67829;BMP280;54626;45.436;10.942;2023-03-01T11:48:56;100638.19;;;10.84
67829;BMP280;54626;45.436;10.942;2023-03-01T11:51:38;100646.22;;;11.08
67829;BMP280;54626;45.436;10.942;2023-03-01T11:57:18;100655.41;;;11.36
67829;BMP280;54626;45.436;10.942;2023-03-01T11:59:57;100655.13;;;11.14
67829;BMP280;54626;45.436;10.942;2023-03-01T12:02:35;100655.25;;;11.21
67829;BMP280;54626;45.436;10.942;2023-03-01T12:08:12;100650.94;;;11.33
67829;BMP280;54626;45.436;10.942;2023-03-01T12:11:23;100645.44;;;11.20
67829;BMP280;54626;45.436;10.942;2023-03-01T12:14:28;100643.78;;;11.04
67829;BMP280;54626;45.436;10.942;2023-03-01T12:17:38;100653.56;;;11.05
67829;BMP280;54626;45.436;10.942;2023-03-01T12:25:27;100642.91;;;11.09
67829;BMP280;54626;45.436;10.942;2023-03-01T12:31:19;100655.19;;;10.88
67829;BMP280;54626;45.436;10.942;2023-03-01T12:34:14;100634.47;;;10.81
67829;BMP280;54626;45.436;10.942;2023-03-01T12:36:48;100647.66;;;10.75
67829;BMP280;54626;45.436;10.942;2023-03-01T12:42:20;100636.19;;;10.46
67829;BMP280;54626;45.436;10.942;2023-03-01T12:50:20;100636.78;;;10.13
67829;BMP280;54626;45.436;10.942;2023-03-01T12:52:51;100630.75;;;10.14
67829;BMP280;54626;45.436;10.942;2023-03-01T12:55:29;100644.69;;;10.22
67829;BMP280;54626;45.436;10.942;2023-03-01T13:01:07;100622.03;;;10.49
67829;BMP280;54626;45.436;10.942;2023-03-01T13:06:43;100598.53;;;10.68
67829;BMP280;54626;45.436;10.942;2023-03-01T13:09:18;100603.81;;;10.79
67829;BMP280;54626;45.436;10.942;2023-03-01T13:11:46;100603.16;;;10.86
67829;BMP280;54626;45.436;10.942;2023-03-01T13:16:50;100584.63;;;10.94
67829;BMP280;54626;45.436;10.942;2023-03-01T13:19:19;100600.06;;;10.90
67829;BMP280;54626;45.436;10.942;2023-03-01T13:21:49;100595.72;;;10.81
67829;BMP280;54626;45.436;10.942;2023-03-01T13:24:42;100596.91;;;10.73
67829;BMP280;54626;45.436;10.942;2023-03-01T13:27:09;100596.19;;;10.72
67829;BMP280;54626;45.436;10.942;2023-03-01T13:29:51;100591.06;;;10.76
67829;BMP280;54626;45.436;10.942;2023-03-01T13:32:30;100590.81;;;10.87
67829;BMP280;54626;45.436;10.942;2023-03-01T13:37:43;100580.13;;;11.04
67829;BMP280;54626;45.436;10.942;2023-03-01T13:42:49;100579.25;;;11.09
67829;BMP280;54626;45.436;10.942;2023-03-01T13:48:02;100557.13;;;11.09
67829;BMP280;54626;45.436;10.942;2023-03-01T13:50:38;100564.56;;;11.14
67829;BMP280;54626;45.436;10.942;2023-03-01T13:53:15;100570.25;;;11.29
67829;BMP280;54626;45.436;10.942;2023-03-01T13:56:10;100567.78;;;11.26
67829;BMP280;54626;45.436;10.942;2023-03-01T13:58:48;100569.72;;;10.97
67829;BMP280;54626;45.436;10.942;2023-03-01T14:01:30;100570.84;;;11.15
67829;BMP280;54626;45.436;10.942;2023-03-01T14:03:58;100564.66;;;10.88
67829;BMP280;54626;45.436;10.942;2023-03-01T14:06:29;100575.44;;;11.12
67829;BMP280;54626;45.436;10.942;2023-03-01T14:11:45;100560.16;;;11.19
67829;BMP280;54626;45.436;10.942;2023-03-01T14:14:36;100564.97;;;11.18
67829;BMP280;54626;45.436;10.942;2023-03-01T14:19:59;100569.72;;;10.97
67829;BMP280;54626;45.436;10.942;2023-03-01T14:22:32;100580.19;;;10.78
67829;BMP280;54626;45.436;10.942;2023-03-01T14:25:02;100590.84;;;10.74
67829;BMP280;54626;45.436;10.942;2023-03-01T14:27:38;100590.88;;;10.62
67829;BMP280;54626;45.436;10.942;2023-03-01T14:30:19;100596.22;;;10.47
67829;BMP280;54626;45.436;10.942;2023-03-01T14:32:57;100592.41;;;10.37
67829;BMP280;54626;45.436;10.942;2023-03-01T14:35:42;100596.09;;;10.13
67829;BMP280;54626;45.436;10.942;2023-03-01T14:38:20;100597.31;;;9.87
67829;BMP280;54626;45.436;10.942;2023-03-01T14:40:48;100596.31;;;9.71
67829;BMP280;54626;45.436;10.942;2023-03-01T14:43:20;100593.63;;;9.53
67829;BMP280;54626;45.436;10.942;2023-03-01T14:45:49;100598.06;;;9.24
67829;BMP280;54626;45.436;10.942;2023-03-01T14:48:17;100601.47;;;9.30
67829;BMP280;54626;45.436;10.942;2023-03-01T14:50:44;100603.56;;;9.24
67829;BMP280;54626;45.436;10.942;2023-03-01T14:53:20;100595.91;;;9.17
67829;BMP280;54626;45.436;10.942;2023-03-01T14:55:52;100595.00;;;9.09
67829;BMP280;54626;45.436;10.942;2023-03-01T14:58:22;100585.63;;;9.00
67829;BMP280;54626;45.436;10.942;2023-03-01T15:00:52;100590.44;;;8.94
67829;BMP280;54626;45.436;10.942;2023-03-01T15:03:37;100584.72;;;8.92
67829;BMP280;54626;45.436;10.942;2023-03-01T15:06:05;100586.00;;;8.91
67829;BMP280;54626;45.436;10.942;2023-03-01T15:08:33;100580.25;;;8.89
67829;BMP280;54626;45.436;10.942;2023-03-01T15:11:21;100570.72;;;8.90
67829;BMP280;54626;45.436;10.942;2023-03-01T15:13:51;100584.59;;;8.84
67829;BMP280;54626;45.436;10.942;2023-03-01T15:16:23;100572.09;;;8.83
67829;BMP280;54626;45.436;10.942;2023-03-01T15:19:01;100569.44;;;8.91
67829;BMP280;54626;45.436;10.942;2023-03-01T15:21:38;100577.22;;;8.92
67829;BMP280;54626;45.436;10.942;2023-03-01T15:26:50;100572.25;;;9.03
67829;BMP280;54626;45.436;10.942;2023-03-01T15:29:26;100574.38;;;8.98
67829;BMP280;54626;45.436;10.942;2023-03-01T15:32:01;100574.81;;;9.02
67829;BMP280;54626;45.436;10.942;2023-03-01T15:34:37;100574.13;;;8.96